Artondale, Washington
Current Conditions -  °F | °C
As of 6:53 PM on Wednesday 26 Nov 2014 (Local Time) from KTIW Reporting Station
Light Rain Light Rain  
Wind Chill: 55°   Ceiling: 4200
Heat Index: 55°   Visibility: 10mi
Dew Point: 52°   Wind: 6mph
Humidity: 89%   Direction: 220°SW
Pressure: 29.94"   Gusts: NA
Location:  47.2986°N, 122.616°W
Report Text: KTIW 270253Z 22005KT 10SM -RA BKN042 OVC095 13/11 A2994 RMK AO2 RAB45 SLP137 P0000 60000 T01280111 56024
Loading
Personal Weather Stations






























Interactive Weather Map New forecast layout! Learn more

10-Day Weather Forecast

Advertisements
Track Severe Weather on mobile